sensor_id;sensor_type;location;lat;lon;timestamp;temperature;humidity
16838;DHT22;19510;54.486;9.046;2023-01-09T06:16:37;6.90;99.90
16838;DHT22;19510;54.486;9.046;2023-01-09T06:19:03;6.90;99.90
16838;DHT22;19510;54.486;9.046;2023-01-09T06:21:33;6.90;99.90
16838;DHT22;19510;54.486;9.046;2023-01-09T06:23:59;6.80;99.90
16838;DHT22;19510;54.486;9.046;2023-01-09T06:26:25;6.80;99.90
16838;DHT22;19510;54.486;9.046;2023-01-09T06:28:51;6.80;99.90
16838;DHT22;19510;54.486;9.046;2023-01-09T06:31:23;6.80;99.90
16838;DHT22;19510;54.486;9.046;2023-01-09T06:33:49;6.90;99.90
16838;DHT22;19510;54.486;9.046;2023-01-09T06:36:15;6.80;99.90
16838;DHT22;19510;54.486;9.046;2023-01-09T06:38:40;6.80;99.90
16838;DHT22;19510;54.486;9.046;2023-01-09T06:41:06;6.80;99.90
16838;DHT22;19510;54.486;9.046;2023-01-09T06:43:32;6.80;99.90
16838;DHT22;19510;54.486;9.046;2023-01-09T06:45:57;6.80;99.90
16838;DHT22;19510;54.486;9.046;2023-01-09T06:48:25;6.80;99.90
16838;DHT22;19510;54.486;9.046;2023-01-09T06:50:52;6.70;99.90
16838;DHT22;19510;54.486;9.046;2023-01-09T06:53:18;6.70;99.90
16838;DHT22;19510;54.486;9.046;2023-01-09T06:55:44;6.80;99.90
16838;DHT22;19510;54.486;9.046;2023-01-09T06:58:11;6.70;99.90
16838;DHT22;19510;54.486;9.046;2023-01-09T07:00:37;6.80;99.90
16838;DHT22;19510;54.486;9.046;2023-01-09T07:03:03;6.80;99.90
16838;DHT22;19510;54.486;9.046;2023-01-09T07:05:30;6.70;99.90
16838;DHT22;19510;54.486;9.046;2023-01-09T07:07:55;6.80;99.90
16838;DHT22;19510;54.486;9.046;2023-01-09T07:10:22;6.80;99.90
16838;DHT22;19510;54.486;9.046;2023-01-09T07:19:09;6.80;99.90
16838;DHT22;19510;54.486;9.046;2023-01-09T07:21:35;6.80;99.90
16838;DHT22;19510;54.486;9.046;2023-01-09T07:24:01;6.80;99.90
16838;DHT22;19510;54.486;9.046;2023-01-09T07:26:26;6.80;99.90
16838;DHT22;19510;54.486;9.046;2023-01-09T07:28:54;6.80;99.90
16838;DHT22;19510;54.486;9.046;2023-01-09T07:37:58;6.80;99.90
16838;DHT22;19510;54.486;9.046;2023-01-09T07:40:23;6.80;99.90
16838;DHT22;19510;54.486;9.046;2023-01-09T07:42:51;6.70;99.90
16838;DHT22;19510;54.486;9.046;2023-01-09T07:45:17;6.80;99.90
16838;DHT22;19510;54.486;9.046;2023-01-09T07:47:43;6.70;99.90
16838;DHT22;19510;54.486;9.046;2023-01-09T07:50:09;6.70;99.90
16838;DHT22;19510;54.486;9.046;2023-01-09T07:52:35;6.70;99.90
16838;DHT22;19510;54.486;9.046;2023-01-09T07:55:01;6.70;99.90
16838;DHT22;19510;54.486;9.046;2023-01-09T07:57:26;6.70;99.90
16838;DHT22;19510;54.486;9.046;2023-01-09T07:59:55;6.70;99.90
16838;DHT22;19510;54.486;9.046;2023-01-09T08:02:21;6.60;99.90
16838;DHT22;19510;54.486;9.046;2023-01-09T08:04:46;6.60;99.90
16838;DHT22;19510;54.486;9.046;2023-01-09T08:07:12;6.70;99.90
16838;DHT22;19510;54.486;9.046;2023-01-09T08:09:40;6.60;99.90
16838;DHT22;19510;54.486;9.046;2023-01-09T08:12:06;6.60;99.90
16838;DHT22;19510;54.486;9.046;2023-01-09T08:14:31;6.60;99.90
16838;DHT22;19510;54.486;9.046;2023-01-09T08:17:00;6.60;99.90
16838;DHT22;19510;54.486;9.046;2023-01-09T08:19:31;6.60;99.90
16838;DHT22;19510;54.486;9.046;2023-01-09T08:22:01;6.60;99.90
16838;DHT22;19510;54.486;9.046;2023-01-09T08:24:27;6.60;99.90
16838;DHT22;19510;54.486;9.046;2023-01-09T08:26:54;6.60;99.90
16838;DHT22;19510;54.486;9.046;2023-01-09T08:29:20;6.60;99.90
16838;DHT22;19510;54.486;9.046;2023-01-09T08:31:45;6.60;99.90
16838;DHT22;19510;54.486;9.046;2023-01-09T08:34:11;6.60;99.90
16838;DHT22;19510;54.486;9.046;2023-01-09T08:36:37;6.60;99.90
16838;DHT22;19510;54.486;9.046;2023-01-09T08:39:02;6.70;99.90
16838;DHT22;19510;54.486;9.046;2023-01-09T08:41:30;6.70;99.90
16838;DHT22;19510;54.486;9.046;2023-01-09T08:44:15;6.70;99.90
16838;DHT22;19510;54.486;9.046;2023-01-09T08:46:59;6.60;99.90
16838;DHT22;19510;54.486;9.046;2023-01-09T08:49:31;6.70;99.90
16838;DHT22;19510;54.486;9.046;2023-01-09T08:51:57;6.70;99.90
16838;DHT22;19510;54.486;9.046;2023-01-09T08:54:22;6.70;99.90
16838;DHT22;19510;54.486;9.046;2023-01-09T08:56:48;6.70;99.90
16838;DHT22;19510;54.486;9.046;2023-01-09T08:59:15;6.70;99.90
16838;DHT22;19510;54.486;9.046;2023-01-09T09:01:41;6.70;99.90
16838;DHT22;19510;54.486;9.046;2023-01-09T09:04:06;6.70;99.90
16838;DHT22;19510;54.486;9.046;2023-01-09T09:06:33;6.70;99.90
16838;DHT22;19510;54.486;9.046;2023-01-09T09:08:59;6.70;99.90
16838;DHT22;19510;54.486;9.046;2023-01-09T09:11:34;6.70;99.90
16838;DHT22;19510;54.486;9.046;2023-01-09T09:14:00;6.80;99.90
16838;DHT22;19510;54.486;9.046;2023-01-09T09:16:46;6.70;99.90
16838;DHT22;19510;54.486;9.046;2023-01-09T09:19:14;6.80;99.90
16838;DHT22;19510;54.486;9.046;2023-01-09T09:21:40;6.90;99.90
16838;DHT22;19510;54.486;9.046;2023-01-09T09:24:06;6.80;99.90
16838;DHT22;19510;54.486;9.046;2023-01-09T09:26:31;6.90;99.90
16838;DHT22;19510;54.486;9.046;2023-01-09T09:28:57;6.90;99.90
16838;DHT22;19510;54.486;9.046;2023-01-09T09:31:23;7.00;99.90
16838;DHT22;19510;54.486;9.046;2023-01-09T09:33:49;7.00;99.90
16838;DHT22;19510;54.486;9.046;2023-01-09T09:36:15;7.00;99.90
16838;DHT22;19510;54.486;9.046;2023-01-09T09:38:40;7.10;99.90
16838;DHT22;19510;54.486;9.046;2023-01-09T09:44:43;7.20;99.90
16838;DHT22;19510;54.486;9.046;2023-01-09T09:52:53;7.30;99.90
16838;DHT22;19510;54.486;9.046;2023-01-09T09:55:31;7.30;99.90
16838;DHT22;19510;54.486;9.046;2023-01-09T09:58:10;7.30;99.90
16838;DHT22;19510;54.486;9.046;2023-01-09T10:00:39;7.40;99.90
16838;DHT22;19510;54.486;9.046;2023-01-09T10:03:48;7.30;99.90
16838;DHT22;19510;54.486;9.046;2023-01-09T10:24:24;7.20;99.90
16838;DHT22;19510;54.486;9.046;2023-01-09T10:26:52;7.20;99.90
16838;DHT22;19510;54.486;9.046;2023-01-09T10:29:35;7.30;99.90
16838;DHT22;19510;54.486;9.046;2023-01-09T10:37:29;7.10;99.90
16838;DHT22;19510;54.486;9.046;2023-01-09T10:42:53;7.00;99.90
16838;DHT22;19510;54.486;9.046;2023-01-09T10:47:54;7.00;99.90
16838;DHT22;19510;54.486;9.046;2023-01-09T10:50:33;7.00;99.90
16838;DHT22;19510;54.486;9.046;2023-01-09T10:53:11;7.00;99.90
16838;DHT22;19510;54.486;9.046;2023-01-09T10:55:45;7.00;99.90
16838;DHT22;19510;54.486;9.046;2023-01-09T10:58:17;6.90;99.90
16838;DHT22;19510;54.486;9.046;2023-01-09T11:00:43;6.80;99.90
16838;DHT22;19510;54.486;9.046;2023-01-09T11:03:13;6.80;99.90
16838;DHT22;19510;54.486;9.046;2023-01-09T11:05:40;6.80;99.90
16838;DHT22;19510;54.486;9.046;2023-01-09T11:13:28;6.70;99.90
16838;DHT22;19510;54.486;9.046;2023-01-09T11:16:22;6.70;99.90
16838;DHT22;19510;54.486;9.046;2023-01-09T11:18:56;6.70;99.90
16838;DHT22;19510;54.486;9.046;2023-01-09T11:21:28;6.70;99.90
16838;DHT22;19510;54.486;9.046;2023-01-09T11:23:55;6.60;99.90
16838;DHT22;19510;54.486;9.046;2023-01-09T11:26:26;6.60;99.90
16838;DHT22;19510;54.486;9.046;2023-01-09T11:29:24;6.70;99.90
16838;DHT22;19510;54.486;9.046;2023-01-09T11:31:54;6.70;99.90
16838;DHT22;19510;54.486;9.046;2023-01-09T11:34:29;6.70;99.90
16838;DHT22;19510;54.486;9.046;2023-01-09T11:37:05;6.70;99.90
16838;DHT22;19510;54.486;9.046;2023-01-09T11:39:33;6.70;99.90
16838;DHT22;19510;54.486;9.046;2023-01-09T11:42:02;6.70;99.90
16838;DHT22;19510;54.486;9.046;2023-01-09T11:44:30;6.80;99.90
16838;DHT22;19510;54.486;9.046;2023-01-09T11:46:56;6.70;99.90
16838;DHT22;19510;54.486;9.046;2023-01-09T11:49:23;6.70;99.90
16838;DHT22;19510;54.486;9.046;2023-01-09T11:54:47;6.80;99.90
16838;DHT22;19510;54.486;9.046;2023-01-09T11:57:15;6.80;99.90
16838;DHT22;19510;54.486;9.046;2023-01-09T11:59:41;6.80;99.90
16838;DHT22;19510;54.486;9.046;2023-01-09T12:16:37;6.80;99.90
16838;DHT22;19510;54.486;9.046;2023-01-09T12:19:29;6.80;99.90
16838;DHT22;19510;54.486;9.046;2023-01-09T12:22:21;6.80;99.90
16838;DHT22;19510;54.486;9.046;2023-01-09T12:25:40;6.80;99.90
16838;DHT22;19510;54.486;9.046;2023-01-09T12:27:59;6.80;99.90
16838;DHT22;19510;54.486;9.046;2023-01-09T12:30:57;6.80;99.90
16838;DHT22;19510;54.486;9.046;2023-01-09T12:36:18;6.70;99.90
16838;DHT22;19510;54.486;9.046;2023-01-09T12:39:41;6.70;99.90
16838;DHT22;19510;54.486;9.046;2023-01-09T12:42:12;6.80;99.90
16838;DHT22;19510;54.486;9.046;2023-01-09T12:44:47;6.80;99.90
16838;DHT22;19510;54.486;9.046;2023-01-09T12:47:46;6.80;99.90
16838;DHT22;19510;54.486;9.046;2023-01-09T12:50:58;6.80;99.90
16838;DHT22;19510;54.486;9.046;2023-01-09T12:53:31;6.80;99.90
16838;DHT22;19510;54.486;9.046;2023-01-09T12:56:03;6.80;99.90
16838;DHT22;19510;54.486;9.046;2023-01-09T12:58:51;6.80;99.90
16838;DHT22;19510;54.486;9.046;2023-01-09T13:01:26;6.90;99.90
16838;DHT22;19510;54.486;9.046;2023-01-09T13:04:11;6.90;99.90
16838;DHT22;19510;54.486;9.046;2023-01-09T13:06:43;6.90;99.90
16838;DHT22;19510;54.486;9.046;2023-01-09T13:09:26;6.90;99.90
16838;DHT22;19510;54.486;9.046;2023-01-09T13:17:41;7.00;99.90
16838;DHT22;19510;54.486;9.046;2023-01-09T13:20:22;7.00;99.90
16838;DHT22;19510;54.486;9.046;2023-01-09T13:22:52;7.00;99.90
16838;DHT22;19510;54.486;9.046;2023-01-09T13:25:25;7.00;99.90
16838;DHT22;19510;54.486;9.046;2023-01-09T13:28:04;7.10;99.90
16838;DHT22;19510;54.486;9.046;2023-01-09T13:30:59;7.10;99.90
16838;DHT22;19510;54.486;9.046;2023-01-09T13:33:32;7.10;99.90
16838;DHT22;19510;54.486;9.046;2023-01-09T13:35:59;7.10;99.90
16838;DHT22;19510;54.486;9.046;2023-01-09T13:38:29;7.10;99.90
16838;DHT22;19510;54.486;9.046;2023-01-09T13:43:56;7.10;99.90
16838;DHT22;19510;54.486;9.046;2023-01-09T13:46:29;7.10;99.90
16838;DHT22;19510;54.486;9.046;2023-01-09T13:48:59;7.10;99.90
16838;DHT22;19510;54.486;9.046;2023-01-09T13:51:55;7.10;99.90
16838;DHT22;19510;54.486;9.046;2023-01-09T13:59:46;7.10;99.90
16838;DHT22;19510;54.486;9.046;2023-01-09T14:05:12;7.10;99.90
16838;DHT22;19510;54.486;9.046;2023-01-09T14:07:41;7.10;99.90
16838;DHT22;19510;54.486;9.046;2023-01-09T14:10:34;7.20;99.90
16838;DHT22;19510;54.486;9.046;2023-01-09T14:13:07;7.20;99.90
16838;DHT22;19510;54.486;9.046;2023-01-09T14:15:39;7.20;99.90
16838;DHT22;19510;54.486;9.046;2023-01-09T14:18:17;7.20;99.90
16838;DHT22;19510;54.486;9.046;2023-01-09T14:21:06;7.10;99.90
16838;DHT22;19510;54.486;9.046;2023-01-09T14:23:47;7.10;99.90
16838;DHT22;19510;54.486;9.046;2023-01-09T14:26:22;7.20;99.90
16838;DHT22;19510;54.486;9.046;2023-01-09T14:28:48;7.20;99.90
16838;DHT22;19510;54.486;9.046;2023-01-09T14:31:29;7.30;99.90
16838;DHT22;19510;54.486;9.046;2023-01-09T14:34:26;7.20;99.90
16838;DHT22;19510;54.486;9.046;2023-01-09T14:36:57;7.30;99.90
16838;DHT22;19510;54.486;9.046;2023-01-09T14:39:25;7.30;99.90
16838;DHT22;19510;54.486;9.046;2023-01-09T14:41:56;7.30;99.90
16838;DHT22;19510;54.486;9.046;2023-01-09T14:47:43;7.30;99.90
16838;DHT22;19510;54.486;9.046;2023-01-09T14:55:51;7.30;99.90
16838;DHT22;19510;54.486;9.046;2023-01-09T14:58:23;7.30;99.90
16838;DHT22;19510;54.486;9.046;2023-01-09T15:01:05;7.40;99.90
16838;DHT22;19510;54.486;9.046;2023-01-09T15:03:45;7.40;99.90
16838;DHT22;19510;54.486;9.046;2023-01-09T15:06:23;7.40;99.90
16838;DHT22;19510;54.486;9.046;2023-01-09T15:09:23;7.40;99.90
16838;DHT22;19510;54.486;9.046;2023-01-09T15:11:51;7.40;99.90
16838;DHT22;19510;54.486;9.046;2023-01-09T15:14:38;7.40;99.90
16838;DHT22;19510;54.486;9.046;2023-01-09T15:17:20;7.40;99.90
16838;DHT22;19510;54.486;9.046;2023-01-09T15:19:47;7.50;99.90
16838;DHT22;19510;54.486;9.046;2023-01-09T15:22:28;7.50;99.90
16838;DHT22;19510;54.486;9.046;2023-01-09T15:24:54;7.50;99.90
16838;DHT22;19510;54.486;9.046;2023-01-09T15:27:20;7.40;99.90
16838;DHT22;19510;54.486;9.046;2023-01-09T15:29:48;7.40;99.90
16838;DHT22;19510;54.486;9.046;2023-01-09T15:32:23;7.50;99.90
16838;DHT22;19510;54.486;9.046;2023-01-09T15:34:49;7.50;99.90
16838;DHT22;19510;54.486;9.046;2023-01-09T15:39:47;7.40;99.90
16838;DHT22;19510;54.486;9.046;2023-01-09T15:42:24;7.40;99.90
16838;DHT22;19510;54.486;9.046;2023-01-09T15:45:37;7.40;99.90
16838;DHT22;19510;54.486;9.046;2023-01-09T15:48:35;7.40;99.90
16838;DHT22;19510;54.486;9.046;2023-01-09T15:53:28;7.40;99.90
16838;DHT22;19510;54.486;9.046;2023-01-09T15:58:36;7.50;99.90
16838;DHT22;19510;54.486;9.046;2023-01-09T16:01:16;7.50;99.90
16838;DHT22;19510;54.486;9.046;2023-01-09T16:03:44;7.50;99.90
16838;DHT22;19510;54.486;9.046;2023-01-09T16:06:22;7.50;99.90
16838;DHT22;19510;54.486;9.046;2023-01-09T16:08:50;7.50;99.90
16838;DHT22;19510;54.486;9.046;2023-01-09T16:13:49;7.50;99.90
16838;DHT22;19510;54.486;9.046;2023-01-09T16:16:29;7.50;99.90
16838;DHT22;19510;54.486;9.046;2023-01-09T16:18:58;7.50;99.90
16838;DHT22;19510;54.486;9.046;2023-01-09T16:21:35;7.50;99.90
16838;DHT22;19510;54.486;9.046;2023-01-09T16:33:24;7.50;99.90
16838;DHT22;19510;54.486;9.046;2023-01-09T16:35:50;7.50;99.90
16838;DHT22;19510;54.486;9.046;2023-01-09T16:38:17;7.40;99.90
16838;DHT22;19510;54.486;9.046;2023-01-09T16:41:02;7.40;99.90
16838;DHT22;19510;54.486;9.046;2023-01-09T16:43:47;7.40;99.90
16838;DHT22;19510;54.486;9.046;2023-01-09T16:46:18;7.40;99.90
16838;DHT22;19510;54.486;9.046;2023-01-09T16:48:52;7.40;99.90
16838;DHT22;19510;54.486;9.046;2023-01-09T16:51:21;7.40;99.90
16838;DHT22;19510;54.486;9.046;2023-01-09T16:53:48;7.40;99.90
16838;DHT22;19510;54.486;9.046;2023-01-09T16:58:48;7.40;99.90
16838;DHT22;19510;54.486;9.046;2023-01-09T17:04:36;7.40;99.90
16838;DHT22;19510;54.486;9.046;2023-01-09T17:07:02;7.40;99.90
16838;DHT22;19510;54.486;9.046;2023-01-09T17:09:27;7.40;99.90
16838;DHT22;19510;54.486;9.046;2023-01-09T17:11:53;7.40;99.90
16838;DHT22;19510;54.486;9.046;2023-01-09T17:14:19;7.40;99.90
16838;DHT22;19510;54.486;9.046;2023-01-09T17:16:44;7.40;99.90
16838;DHT22;19510;54.486;9.046;2023-01-09T17:19:18;7.40;99.90
16838;DHT22;19510;54.486;9.046;2023-01-09T17:21:44;7.40;99.90
16838;DHT22;19510;54.486;9.046;2023-01-09T17:24:10;7.40;99.90
16838;DHT22;19510;54.486;9.046;2023-01-09T17:26:54;7.40;99.90
16838;DHT22;19510;54.486;9.046;2023-01-09T17:29:39;7.40;99.90
16838;DHT22;19510;54.486;9.046;2023-01-09T17:32:05;7.40;99.90
16838;DHT22;19510;54.486;9.046;2023-01-09T17:34:33;7.30;99.90
16838;DHT22;19510;54.486;9.046;2023-01-09T17:37:01;7.30;99.90
16838;DHT22;19510;54.486;9.046;2023-01-09T17:39:27;7.40;99.90
16838;DHT22;19510;54.486;9.046;2023-01-09T17:41:52;7.30;99.90
16838;DHT22;19510;54.486;9.046;2023-01-09T17:44:18;7.30;99.90
16838;DHT22;19510;54.486;9.046;2023-01-09T17:46:44;7.30;99.90
16838;DHT22;19510;54.486;9.046;2023-01-09T17:49:18;7.30;99.90
16838;DHT22;19510;54.486;9.046;2023-01-09T17:51:44;7.30;99.90
16838;DHT22;19510;54.486;9.046;2023-01-09T17:54:10;7.30;99.90
16838;DHT22;19510;54.486;9.046;2023-01-09T17:56:37;7.30;99.90
16838;DHT22;19510;54.486;9.046;2023-01-09T17:59:04;7.30;99.90
16838;DHT22;19510;54.486;9.046;2023-01-09T18:01:32;7.30;99.90
16838;DHT22;19510;54.486;9.046;2023-01-09T18:04:00;7.20;99.90
16838;DHT22;19510;54.486;9.046;2023-01-09T18:06:26;7.20;99.90
16838;DHT22;19510;54.486;9.046;2023-01-09T18:08:53;7.20;99.90
16838;DHT22;19510;54.486;9.046;2023-01-09T18:11:20;7.20;99.90
16838;DHT22;19510;54.486;9.046;2023-01-09T18:13:50;7.20;99.90
16838;DHT22;19510;54.486;9.046;2023-01-09T18:16:20;7.20;99.90
16838;DHT22;19510;54.486;9.046;2023-01-09T18:21:48;7.20;99.90
16838;DHT22;19510;54.486;9.046;2023-01-09T18:24:14;7.30;99.90
16838;DHT22;19510;54.486;9.046;2023-01-09T18:26:39;7.30;99.90
16838;DHT22;19510;54.486;9.046;2023-01-09T18:29:10;7.30;99.90
16838;DHT22;19510;54.486;9.046;2023-01-09T18:31:38;7.30;99.90
16838;DHT22;19510;54.486;9.046;2023-01-09T18:34:04;7.20;99.90
16838;DHT22;19510;54.486;9.046;2023-01-09T18:36:32;7.40;99.90
16838;DHT22;19510;54.486;9.046;2023-01-09T18:39:00;7.30;99.90
16838;DHT22;19510;54.486;9.046;2023-01-09T18:41:26;7.10;99.90
16838;DHT22;19510;54.486;9.046;2023-01-09T18:43:55;7.20;99.90
16838;DHT22;19510;54.486;9.046;2023-01-09T18:46:22;7.20;99.90
16838;DHT22;19510;54.486;9.046;2023-01-09T18:49:02;7.20;99.90
16838;DHT22;19510;54.486;9.046;2023-01-09T18:51:29;7.20;99.90
16838;DHT22;19510;54.486;9.046;2023-01-09T18:53:56;7.20;99.90
16838;DHT22;19510;54.486;9.046;2023-01-09T18:56:23;7.20;99.90
16838;DHT22;19510;54.486;9.046;2023-01-09T18:58:55;7.20;99.90
16838;DHT22;19510;54.486;9.046;2023-01-09T19:01:22;7.20;99.90
16838;DHT22;19510;54.486;9.046;2023-01-09T19:03:47;7.20;99.90
16838;DHT22;19510;54.486;9.046;2023-01-09T19:06:14;7.20;99.90
16838;DHT22;19510;54.486;9.046;2023-01-09T19:08:39;7.20;99.90
16838;DHT22;19510;54.486;9.046;2023-01-09T19:11:05;7.20;99.90
16838;DHT22;19510;54.486;9.046;2023-01-09T19:13:33;7.20;99.90
16838;DHT22;19510;54.486;9.046;2023-01-09T19:15:59;7.20;99.90
16838;DHT22;19510;54.486;9.046;2023-01-09T19:18:26;7.30;99.90
16838;DHT22;19510;54.486;9.046;2023-01-09T19:20:53;7.30;99.90
16838;DHT22;19510;54.486;9.046;2023-01-09T19:23:20;7.30;99.90
16838;DHT22;19510;54.486;9.046;2023-01-09T19:25:49;7.30;99.90
16838;DHT22;19510;54.486;9.046;2023-01-09T19:28:14;7.30;99.90
16838;DHT22;19510;54.486;9.046;2023-01-09T19:30:41;7.30;99.90
16838;DHT22;19510;54.486;9.046;2023-01-09T19:33:08;7.30;99.90
16838;DHT22;19510;54.486;9.046;2023-01-09T19:35:37;7.30;99.90
16838;DHT22;19510;54.486;9.046;2023-01-09T19:38:04;7.40;99.90
16838;DHT22;19510;54.486;9.046;2023-01-09T19:40:30;7.40;99.90
16838;DHT22;19510;54.486;9.046;2023-01-09T19:42:57;7.40;99.90
16838;DHT22;19510;54.486;9.046;2023-01-09T19:45:23;7.40;99.90
16838;DHT22;19510;54.486;9.046;2023-01-09T19:47:49;7.40;99.90
16838;DHT22;19510;54.486;9.046;2023-01-09T19:50:16;7.40;99.90
16838;DHT22;19510;54.486;9.046;2023-01-09T19:52:43;7.40;99.90
16838;DHT22;19510;54.486;9.046;2023-01-09T19:55:10;7.40;99.90
16838;DHT22;19510;54.486;9.046;2023-01-09T19:57:38;7.40;99.90
16838;DHT22;19510;54.486;9.046;2023-01-09T20:00:12;7.40;99.90
16838;DHT22;19510;54.486;9.046;2023-01-09T20:02:39;7.40;99.90
16838;DHT22;19510;54.486;9.046;2023-01-09T20:05:05;7.40;99.90
16838;DHT22;19510;54.486;9.046;2023-01-09T20:07:31;7.40;99.90
16838;DHT22;19510;54.486;9.046;2023-01-09T20:09:58;7.50;99.90
16838;DHT22;19510;54.486;9.046;2023-01-09T20:12:24;7.40;99.90
16838;DHT22;19510;54.486;9.046;2023-01-09T20:14:49;7.40;99.90
16838;DHT22;19510;54.486;9.046;2023-01-09T20:17:16;7.40;99.90
16838;DHT22;19510;54.486;9.046;2023-01-09T20:19:42;7.40;99.90
16838;DHT22;19510;54.486;9.046;2023-01-09T20:22:10;7.40;99.90
16838;DHT22;19510;54.486;9.046;2023-01-09T20:24:36;7.40;99.90
16838;DHT22;19510;54.486;9.046;2023-01-09T20:27:03;7.40;99.90
16838;DHT22;19510;54.486;9.046;2023-01-09T20:29:29;7.40;99.90
16838;DHT22;19510;54.486;9.046;2023-01-09T20:31:55;7.40;99.90
16838;DHT22;19510;54.486;9.046;2023-01-09T20:34:21;7.40;99.90
16838;DHT22;19510;54.486;9.046;2023-01-09T20:36:46;7.40;99.90
16838;DHT22;19510;54.486;9.046;2023-01-09T20:39:12;7.30;99.90
16838;DHT22;19510;54.486;9.046;2023-01-09T20:41:38;7.30;99.90
16838;DHT22;19510;54.486;9.046;2023-01-09T20:44:09;7.30;99.90
16838;DHT22;19510;54.486;9.046;2023-01-09T20:46:40;7.30;99.90
16838;DHT22;19510;54.486;9.046;2023-01-09T20:49:08;7.30;99.90
16838;DHT22;19510;54.486;9.046;2023-01-09T20:51:35;7.40;99.90
16838;DHT22;19510;54.486;9.046;2023-01-09T20:54:02;7.30;99.90
16838;DHT22;19510;54.486;9.046;2023-01-09T20:56:29;7.40;99.90
16838;DHT22;19510;54.486;9.046;2023-01-09T20:58:56;7.40;99.90
16838;DHT22;19510;54.486;9.046;2023-01-09T21:01:23;7.40;99.90
16838;DHT22;19510;54.486;9.046;2023-01-09T21:03:51;7.40;99.90
16838;DHT22;19510;54.486;9.046;2023-01-09T21:16:32;7.30;99.90
16838;DHT22;19510;54.486;9.046;2023-01-09T21:18:58;7.30;99.90
16838;DHT22;19510;54.486;9.046;2023-01-09T21:21:25;7.40;99.90
16838;DHT22;19510;54.486;9.046;2023-01-09T21:23:56;7.30;99.90
16838;DHT22;19510;54.486;9.046;2023-01-09T21:26:23;7.40;99.90
16838;DHT22;19510;54.486;9.046;2023-01-09T21:28:52;7.40;99.90
16838;DHT22;19510;54.486;9.046;2023-01-09T21:31:22;7.40;99.90
16838;DHT22;19510;54.486;9.046;2023-01-09T21:33:49;7.40;99.90
16838;DHT22;19510;54.486;9.046;2023-01-09T21:36:15;7.40;99.90
16838;DHT22;19510;54.486;9.046;2023-01-09T21:39:13;7.40;99.90
16838;DHT22;19510;54.486;9.046;2023-01-09T21:45:23;7.40;99.90
16838;DHT22;19510;54.486;9.046;2023-01-09T21:48:07;7.40;99.90
16838;DHT22;19510;54.486;9.046;2023-01-09T21:50:34;7.40;99.90
16838;DHT22;19510;54.486;9.046;2023-01-09T21:53:00;7.40;99.90
16838;DHT22;19510;54.486;9.046;2023-01-09T21:55:26;7.40;99.90
16838;DHT22;19510;54.486;9.046;2023-01-09T21:57:55;7.40;99.90
16838;DHT22;19510;54.486;9.046;2023-01-09T22:00:22;7.40;99.90
16838;DHT22;19510;54.486;9.046;2023-01-09T22:06:05;7.40;99.90
16838;DHT22;19510;54.486;9.046;2023-01-09T22:08:31;7.40;99.90
16838;DHT22;19510;54.486;9.046;2023-01-09T22:10:56;7.30;99.90
16838;DHT22;19510;54.486;9.046;2023-01-09T22:13:25;7.40;99.90
16838;DHT22;19510;54.486;9.046;2023-01-09T22:15:51;7.40;99.90
16838;DHT22;19510;54.486;9.046;2023-01-09T22:18:17;7.40;99.90
16838;DHT22;19510;54.486;9.046;2023-01-09T22:20:44;7.40;99.90
16838;DHT22;19510;54.486;9.046;2023-01-09T22:23:10;7.40;99.90
16838;DHT22;19510;54.486;9.046;2023-01-09T22:25:37;7.40;99.90
16838;DHT22;19510;54.486;9.046;2023-01-09T22:28:05;7.40;99.90
16838;DHT22;19510;54.486;9.046;2023-01-09T22:30:31;7.40;99.90
16838;DHT22;19510;54.486;9.046;2023-01-09T22:32:56;7.40;99.90
16838;DHT22;19510;54.486;9.046;2023-01-09T22:35:23;7.40;99.90
16838;DHT22;19510;54.486;9.046;2023-01-09T22:37:49;7.40;99.90
16838;DHT22;19510;54.486;9.046;2023-01-09T22:40:14;7.40;99.90
16838;DHT22;19510;54.486;9.046;2023-01-09T22:42:40;7.40;99.90
16838;DHT22;19510;54.486;9.046;2023-01-09T22:45:06;7.40;99.90
16838;DHT22;19510;54.486;9.046;2023-01-09T22:47:32;7.40;99.90
16838;DHT22;19510;54.486;9.046;2023-01-09T22:49:58;7.40;99.90
16838;DHT22;19510;54.486;9.046;2023-01-09T22:52:23;7.40;99.90
16838;DHT22;19510;54.486;9.046;2023-01-09T22:54:49;7.40;99.90
16838;DHT22;19510;54.486;9.046;2023-01-09T22:57:15;7.30;99.90
16838;DHT22;19510;54.486;9.046;2023-01-09T22:59:40;7.30;99.90
16838;DHT22;19510;54.486;9.046;2023-01-09T23:02:06;7.30;99.90
16838;DHT22;19510;54.486;9.046;2023-01-09T23:04:32;7.30;99.90
16838;DHT22;19510;54.486;9.046;2023-01-09T23:06:57;7.30;99.90
16838;DHT22;19510;54.486;9.046;2023-01-09T23:09:23;7.20;99.90
16838;DHT22;19510;54.486;9.046;2023-01-09T23:11:50;7.30;99.90
16838;DHT22;19510;54.486;9.046;2023-01-09T23:14:33;7.20;99.90
16838;DHT22;19510;54.486;9.046;2023-01-09T23:17:00;7.20;99.90
16838;DHT22;19510;54.486;9.046;2023-01-09T23:19:27;7.20;99.90
16838;DHT22;19510;54.486;9.046;2023-01-09T23:21:54;7.00;99.90
